METAR Formatted Surface Weather Observation
Issued by NWS

Home | Current Version | Previous Version | Text Only | Print | Product List | Glossary On
Versions: 1 2 3 4 5 6 7 8 9 10 11 12 13 14 15 16 17 18 19 20 21 22 23 24 25 26 27 28 29 30 31 32
000
SAUS41 KBOX 231355
MTRMQE
METAR KMQE 231354Z AUTO 22010KT 08/04 A2986 RMK AO1 SLP124 T00830039



USA.gov is the U.S. government's official web portal to all federal, state and local government web resources and services.